Roosevelt, UT (84066)

5:43 PM MST on February 11, 2016 (GMT -0700)
Gale's Acres | | Change Station
CLOSE
Current Station
Personal Weather Station
Location: Roosevelt, UT
Elevation: 5039 ft
Nearby Weather Stations

Elev 5039 ft 40.28 °N, 109.99 °W | Updated 15 minutes ago

Clear
Clear
34.2 °F
Feels Like 34 °F
N
0.0
Wind Variable Wind from ESE

Today
High -- | Low -- °F
--% Chance of Precip.
Yesterday
High -- | Low -- °F
Precip. -- in
Pressure 30.54 in
Visibility 5.0 miles
Clouds Clear
Windchill 34 °F
Dew Point 21 °F
Humidity 59%
Rainfall 0.00 in
Snow Depth Not available.
7:19 AM 5:50 PM
Waxing Crescent, 15% visible
METAR KVEL 112353Z AUTO 00000KT 5SM HZ CLR M02/M07 A3039 RMK AO2 SLP342 T10221072 10000 21044 53001
Pressure 30.54 in
Visibility 5.0 miles
Clouds Clear
Windchill 34 °F
Dew Point 21 °F
Humidity 59%
Rainfall 0.00 in
Snow Depth Not available.
7:19 AM 5:50 PM
Waxing Crescent, 15% visible
METAR KVEL 112353Z AUTO 00000KT 5SM HZ CLR M02/M07 A3039 RMK AO2 SLP342 T10221072 10000 21044 53001

10-Day Weather Forecast

Almanac

Astronomy

Feb. 11, 2016 Rise Set
Actual Time
Civil Twilight
Nautical Twilight
Astronomical Twilight
Moon
Length of Visible Light
Length of Day
Tomorrow will be .
, % of the Moon is Illuminated

Today's Extremes

State Highs State Lows

Community

WunderPhotos

Upload Photos

1,892,195 photos uploaded!

WunderBlog® & News

Nearby

Air Quality

  Air Quality AQ Index Pollutant
Not available.

Snow Depth

Station Depth Elevation

Earthquake Activity

City Distance Mag. Time & Date
Minimum magnitude displayed is 2.5.

Coastal Water Temperatures

Place Temperature

Stations

Nearby Weather Stations

Station Location Temp. Windchill Dew Point Humidity Wind Precip. Elev Updated Type
                   

Watches & Warnings

There are currently no watches in effect.